Afonsos, Brazil

12:39 PM BRT on July 03, 2015 (GMT -0300)
Afonsos | | Change Station
CLOSE
Current Station
Airport
Location: Afonsos,
Elevation: 112 ft
Nearby Weather Stations

Elev 112 ft 22.88 °S, 43.38 °W | Updated 39 minutes ago

Mostly Cloudy
Mostly Cloudy
79 °F
Feels Like 79 °F
N
4
Wind Variable Wind from SSW

Today
High -- | Low -- °F
--% Chance of Precip.
Yesterday
High -- | Low -- °F
Precip. -- in
6:34 AM 5:20 PM
Full, 97% visible
Pressure 29.98 in
Visibility 6.2 miles
Clouds Scattered Clouds 2500 ft
Mostly Cloudy 10000 ft
Dew Point 64 °F
Humidity 61%
Rainfall 0.00 in
Snow Depth Not available.
UV 4 out of 12
Pollen Not available.
Air Quality Not available.
Flu Activity Not available.
METAR SBAF 031500Z 21003KT 9999 SCT025 BKN100 26/18 Q1015

More Conditions Fewer Conditions

Pressure 29.98 in
Visibility 6.2 miles
Clouds Scattered Clouds 2500 ft
Mostly Cloudy 10000 ft
Dew Point 64 °F
Humidity 61%
Rainfall 0.00 in
Snow Depth Not available.
UV 4 out of 12
Pollen Not available.
Air Quality Not available.
Flu Activity Not available.
METAR SBAF 031500Z 21003KT 9999 SCT025 BKN100 26/18 Q1015

More Conditions Fewer Conditions

10-Day Weather Forecast

×

Almanac

Astronomy

Jul. 03, 2015 Rise Set
Actual Time
Civil Twilight
Nautical Twilight
Astronomical Twilight
Moon
Length of Visible Light
Length of Day
Tomorrow will be .
, % of the Moon is Illuminated

Today's Extremes

Country Highs Country Lows

Community

WunderPhotos

Upload Photos

1,834,679 photos uploaded!

WunderBlogs® & News

Nearby

Air Quality

  Air Quality AQ Index Pollutant
Not available.

Snow Depth

Station Depth Elevation

Earthquake Activity

City Distance Mag. Time & Date
Minimum magnitude displayed is 2.5.

Coastal Water Temperatures

Place Temperature

Stations

Nearby Weather Stations

Station Location Temp. Windchill Dew Point Humidity Wind Precip. Elev Updated Type